Time;durP1;ratioP1;P1;durP2;ratioP2;P2;SDS_P1;SDS_P2;PMS_P1;PMS_P2;Temp;Humidity;BMP_temperature;BMP_pressure;BME280_temperature;BME280_humidity;BME280_pressure;Samples;Min_cycle;Max_cycle;Signal;HPM_P1;HPM_P2
2022/08/30 00:01:28;;;;;;;11.63;8.38;;;;;;;16.49;100.00;100649.52;2626177;88;21066;-89
2022/08/30 00:05:30;;;;;;;17.05;8.98;;;;;;;16.50;100.00;100650.72;2629780;87;21629;-88
2022/08/30 00:09:32;;;;;;;10.53;6.60;;;;;;;16.46;100.00;100651.17;2608247;89;21082;-88
2022/08/30 00:13:33;;;;;;;11.53;7.70;;;;;;;16.44;100.00;100645.12;2551641;91;21864;-88
2022/08/30 00:17:35;;;;;;;13.68;8.38;;;;;;;16.47;100.00;100648.83;2558970;89;21102;-88
2022/08/30 00:21:38;;;;;;;9.48;8.20;;;;;;;16.44;100.00;100647.80;2562100;91;21087;-88
2022/08/30 00:25:39;;;;;;;16.05;9.30;;;;;;;16.38;100.00;100642.06;2589690;90;21137;-87
2022/08/30 00:29:41;;;;;;;11.15;9.08;;;;;;;16.37;100.00;100647.58;2574789;90;21163;-88
2022/08/30 00:33:43;;;;;;;14.25;9.35;;;;;;;16.34;100.00;100642.52;2599463;89;21606;-88
2022/08/30 00:37:44;;;;;;;11.78;9.63;;;;;;;16.39;100.00;100642.89;2601513;89;21119;-88
2022/08/30 00:41:45;;;;;;;12.05;8.98;;;;;;;16.39;100.00;100646.44;2595866;89;21507;-89
2022/08/30 00:45:47;;;;;;;16.35;9.93;;;;;;;16.40;100.00;100642.75;2671422;88;22232;-88
2022/08/30 00:49:52;;;;;;;12.63;8.38;;;;;;;16.41;100.00;100647.63;2625513;87;21596;-89
2022/08/30 00:53:56;;;;;;;9.48;7.58;;;;;;;16.34;100.00;100646.06;2609541;89;21112;-88
2022/08/30 00:58:01;;;;;;;12.78;9.20;;;;;;;16.29;100.00;100644.32;2602334;89;21114;-88
2022/08/30 01:02:04;;;;;;;9.55;8.23;;;;;;;16.27;100.00;100639.61;2539118;90;21162;-88
2022/08/30 01:06:06;;;;;;;10.55;8.05;;;;;;;16.21;100.00;100640.23;2575180;89;21210;-88
2022/08/30 01:10:11;;;;;;;12.70;8.70;;;;;;;16.26;100.00;100639.27;2568922;90;21105;-88
2022/08/30 01:14:13;;;;;;;12.43;9.88;;;;;;;16.34;100.00;100633.98;2606201;89;21094;-89
2022/08/30 01:18:16;;;;;;;10.50;7.87;;;;;;;16.41;100.00;100628.33;2616404;89;21617;-88
2022/08/30 01:22:38;;;;;;;11.33;10.08;;;;;;;16.45;100.00;100617.27;2592899;89;21088;-88
2022/08/30 01:26:39;;;;;;;13.28;7.92;;;;;;;16.49;100.00;100627.55;2595078;90;21627;-88
2022/08/30 01:30:44;;;;;;;11.20;8.13;;;;;;;16.52;100.00;100623.72;2652453;87;21095;-89
2022/08/30 01:34:49;;;;;;;41.00;11.33;;;;;;;16.56;100.00;100631.80;2630335;87;21073;-88
2022/08/30 01:38:55;;;;;;;15.50;8.55;;;;;;;16.51;100.00;100635.46;2631642;88;21050;-88
2022/08/30 01:42:57;;;;;;;10.50;7.65;;;;;;;16.48;100.00;100634.41;2632489;88;21051;-88
2022/08/30 01:46:58;;;;;;;13.72;8.38;;;;;;;16.48;100.00;100629.03;2631878;87;21063;-88
2022/08/30 01:50:59;;;;;;;8.88;7.72;;;;;;;16.50;100.00;100635.09;2629186;87;21095;-88
2022/08/30 01:55:02;;;;;;;14.07;7.90;;;;;;;16.49;100.00;100632.06;2634354;88;21050;-87
2022/08/30 01:59:04;;;;;;;13.43;8.43;;;;;;;16.49;100.00;100627.55;2659476;88;21584;-88
2022/08/30 02:03:06;;;;;;;9.03;7.87;;;;;;;16.51;100.00;100634.95;2654367;87;21323;-88
2022/08/30 02:07:08;;;;;;;11.22;9.05;;;;;;;16.55;100.00;100635.48;2651593;87;21066;-88
2022/08/30 02:11:10;;;;;;;11.85;8.75;;;;;;;16.56;100.00;100639.34;2633091;88;21067;-88
2022/08/30 02:15:13;;;;;;;10.95;7.53;;;;;;;16.55;100.00;100644.88;2657243;87;21050;-87
2022/08/30 02:19:14;;;;;;;7.17;6.42;;;;;;;16.55;100.00;100650.25;2660433;87;21731;-87
2022/08/30 02:23:16;;;;;;;7.60;6.90;;;;;;;16.51;100.00;100638.14;2648583;88;21103;-87
2022/08/30 02:27:17;;;;;;;10.40;7.30;;;;;;;16.48;100.00;100643.31;2659245;87;21637;-88
2022/08/30 02:31:21;;;;;;;10.28;6.45;;;;;;;16.44;100.00;100651.83;2649237;87;21074;-88
2022/08/30 02:35:23;;;;;;;10.05;7.85;;;;;;;16.53;100.00;100654.94;2661521;87;21097;-87
2022/08/30 02:39:24;;;;;;;8.90;6.58;;;;;;;16.65;100.00;100658.22;2641794;87;21058;-87
2022/08/30 02:43:26;;;;;;;9.63;7.78;;;;;;;16.79;100.00;100659.48;2627202;88;21070;-88
2022/08/30 02:47:27;;;;;;;11.18;8.00;;;;;;;16.90;100.00;100659.72;2623981;88;21415;-88
2022/08/30 02:51:28;;;;;;;7.92;6.75;;;;;;;17.07;100.00;100656.16;2643052;87;21146;-90
2022/08/30 02:55:30;;;;;;;10.00;6.70;;;;;;;17.04;100.00;100665.89;2626347;87;21101;-89
2022/08/30 02:59:32;;;;;;;9.30;7.22;;;;;;;16.80;100.00;100665.20;2659636;87;21157;-88
2022/08/30 03:03:34;;;;;;;10.08;7.72;;;;;;;16.82;100.00;100660.02;2615988;87;21094;-89
2022/08/30 03:07:35;;;;;;;12.15;8.25;;;;;;;16.90;100.00;100656.55;2625847;88;21093;-89
2022/08/30 03:11:37;;;;;;;15.23;7.50;;;;;;;16.96;100.00;100660.42;2647676;87;21416;-89
2022/08/30 03:15:39;;;;;;;9.55;7.60;;;;;;;17.09;100.00;100660.02;2623826;88;21126;-85
2022/08/30 03:19:40;;;;;;;11.93;7.22;;;;;;;17.26;100.00;100659.10;2614548;87;21625;-89
2022/08/30 03:23:42;;;;;;;10.53;7.15;;;;;;;17.25;100.00;100668.17;2663617;87;21055;-89
2022/08/30 03:27:44;;;;;;;11.63;6.35;;;;;;;17.13;100.00;100664.09;2629216;88;21617;-89
2022/08/30 03:31:45;;;;;;;8.25;6.55;;;;;;;17.04;100.00;100659.17;2628712;87;21109;-89
2022/08/30 03:35:46;;;;;;;10.15;6.90;;;;;;;17.03;100.00;100664.20;2650999;87;21080;-90
2022/08/30 03:39:48;;;;;;;13.65;9.00;;;;;;;16.98;100.00;100660.64;2637391;88;21107;-89
2022/08/30 03:43:50;;;;;;;11.25;7.10;;;;;;;16.99;100.00;100660.13;2619394;88;21047;-89
2022/08/30 03:47:51;;;;;;;11.63;8.10;;;;;;;16.96;100.00;100661.28;2656800;87;21078;-89
2022/08/30 03:51:52;;;;;;;8.93;7.83;;;;;;;16.99;100.00;100669.05;2638531;88;21078;-89
2022/08/30 03:55:54;;;;;;;9.53;7.33;;;;;;;17.05;100.00;100671.61;2609547;87;21563;-89
2022/08/30 03:59:55;;;;;;;10.63;8.13;;;;;;;17.16;100.00;100662.42;2649671;87;21086;-89
2022/08/30 04:03:57;;;;;;;12.18;7.83;;;;;;;17.28;100.00;100673.22;2631303;87;21605;-89
2022/08/30 04:07:58;;;;;;;10.15;8.85;;;;;;;17.39;100.00;100679.34;2664781;87;21104;-89
2022/08/30 04:12:00;;;;;;;12.13;6.87;;;;;;;17.47;100.00;100677.19;2645217;87;21112;-89
2022/08/30 04:16:01;;;;;;;11.28;8.40;;;;;;;17.47;100.00;100675.84;2627846;88;21086;-89
2022/08/30 04:20:03;;;;;;;8.23;7.10;;;;;;;17.47;100.00;100678.53;2620951;88;21066;-88
2022/08/30 04:24:05;;;;;;;10.43;7.72;;;;;;;17.44;100.00;100681.03;2638599;87;21054;-89
2022/08/30 04:28:07;;;;;;;12.18;8.15;;;;;;;17.49;100.00;100685.45;2640927;88;21042;-89
2022/08/30 04:32:09;;;;;;;8.43;6.92;;;;;;;17.56;100.00;100689.16;2670328;88;21086;-89
2022/08/30 04:36:12;;;;;;;10.63;7.03;;;;;;;17.42;100.00;100691.11;2623889;88;21125;-88
2022/08/30 04:40:14;;;;;;;11.35;7.03;;;;;;;17.31;100.00;100694.92;2623492;88;21642;-88
2022/08/30 04:44:16;;;;;;;14.50;8.65;;;;;;;17.15;100.00;100698.37;2636123;87;21067;-88
2022/08/30 04:48:17;;;;;;;11.43;7.70;;;;;;;17.19;100.00;100698.88;2619989;89;21106;-88
2022/08/30 04:52:19;;;;;;;8.50;6.50;;;;;;;17.18;100.00;100699.39;2658686;88;21061;-88
2022/08/30 04:56:22;;;;;;;10.40;7.35;;;;;;;17.25;100.00;100702.29;2609505;87;21562;-88
2022/08/30 05:00:23;;;;;;;8.05;6.33;;;;;;;17.32;100.00;100703.84;2618239;88;21649;-88
2022/08/30 05:04:25;;;;;;;10.53;6.85;;;;;;;17.43;100.00;100710.79;2662104;88;21213;-88
2022/08/30 05:08:26;;;;;;;12.07;7.28;;;;;;;17.53;100.00;100711.00;2636866;88;21056;-88
2022/08/30 05:12:27;;;;;;;9.25;6.15;;;;;;;17.67;100.00;100707.34;2623282;89;21661;-88
2022/08/30 05:16:28;;;;;;;14.95;7.28;;;;;;;17.75;100.00;100709.22;2619701;88;21106;-88
2022/08/30 05:20:30;;;;;;;7.42;6.30;;;;;;;17.78;100.00;100721.86;2629769;89;21553;-88
2022/08/30 05:24:31;;;;;;;8.50;6.80;;;;;;;17.80;100.00;100717.15;2678141;88;21108;-88
2022/08/30 05:28:34;;;;;;;6.72;6.05;;;;;;;17.82;100.00;100717.83;2617078;88;21129;-88
2022/08/30 05:32:35;;;;;;;7.45;6.28;;;;;;;17.98;100.00;100726.48;2649853;88;21058;-88
2022/08/30 05:36:38;;;;;;;15.43;7.85;;;;;;;18.11;100.00;100727.87;2658497;88;23997;-88
2022/08/30 05:40:42;;;;;;;8.50;6.58;;;;;;;18.43;100.00;100731.64;2612982;89;21549;-88
2022/08/30 05:44:43;;;;;;;11.30;6.12;;;;;;;18.82;100.00;100724.72;2606291;91;21065;-89
2022/08/30 05:48:45;;;;;;;9.20;6.70;;;;;;;19.00;100.00;100734.02;2609060;89;21058;-88
2022/08/30 05:52:47;;;;;;;9.33;7.15;;;;;;;19.11;100.00;100731.48;2604247;89;21101;-88
2022/08/30 05:56:48;;;;;;;11.75;7.33;;;;;;;19.40;100.00;100728.20;2544547;91;21140;-88
2022/08/30 06:00:49;;;;;;;8.35;5.08;;;;;;;19.90;100.00;100724.46;2581069;90;21090;-89
2022/08/30 06:04:50;;;;;;;9.63;6.67;;;;;;;20.23;96.16;100731.89;2616693;89;21114;-89
2022/08/30 06:08:52;;;;;;;21.07;8.35;;;;;;;20.60;94.30;100724.02;2634426;87;21038;-89
2022/08/30 06:12:53;;;;;;;9.70;8.05;;;;;;;20.70;92.94;100730.52;2679205;87;21116;-89
2022/08/30 06:16:54;;;;;;;8.28;6.17;;;;;;;20.76;93.44;100737.06;2622698;88;21382;-89
2022/08/30 06:20:57;;;;;;;9.88;7.47;;;;;;;20.93;94.37;100736.42;2646062;88;21633;-89
2022/08/30 06:24:58;;;;;;;8.98;6.50;;;;;;;21.04;93.22;100744.64;2679770;87;21075;-89
2022/08/30 06:28:59;;;;;;;13.75;7.90;;;;;;;21.03;93.39;100742.92;2651717;88;21062;-89
2022/08/30 06:33:01;;;;;;;8.53;6.40;;;;;;;20.95;93.55;100743.34;2614770;87;21380;-89
2022/08/30 06:37:02;;;;;;;9.43;7.35;;;;;;;20.79;94.68;100740.75;2631750;87;21031;-89
2022/08/30 06:41:09;;;;;;;9.05;6.70;;;;;;;20.75;95.45;100738.09;2657555;88;21109;-89
2022/08/30 06:45:11;;;;;;;8.30;6.58;;;;;;;20.94;94.48;100743.02;2637169;88;21333;-89
2022/08/30 06:49:12;;;;;;;8.45;5.87;;;;;;;21.18;94.78;100728.92;2636276;87;21055;-89
2022/08/30 06:53:13;;;;;;;11.73;7.17;;;;;;;21.40;93.63;100726.31;2595424;90;21626;-89
2022/08/30 06:57:15;;;;;;;12.78;7.30;;;;;;;21.55;90.77;100733.92;2596887;89;21044;-88
2022/08/30 07:01:20;;;;;;;7.50;6.33;;;;;;;21.69;91.22;100738.20;2563563;90;21084;-88
2022/08/30 07:05:22;;;;;;;9.48;7.10;;;;;;;21.64;89.73;100739.25;2554250;91;21160;-89
2022/08/30 07:09:24;;;;;;;11.38;8.38;;;;;;;21.46;91.94;100739.61;2596374;89;21072;-89
2022/08/30 07:13:27;;;;;;;10.85;9.28;;;;;;;21.35;92.93;100749.03;2574190;91;21599;-89
2022/08/30 07:21:49;;;;;;;11.22;8.05;;;;;;;21.24;92.66;100761.16;2586442;90;21086;-89
2022/08/30 07:25:50;;;;;;;10.40;7.62;;;;;;;21.46;94.04;100757.20;2566083;90;21407;-88
2022/08/30 07:29:52;;;;;;;9.30;6.28;;;;;;;21.73;91.88;100759.80;2540916;91;21087;-88
2022/08/30 07:33:53;;;;;;;12.55;7.70;;;;;;;21.79;89.90;100761.73;2566143;92;21086;-88
2022/08/30 07:37:55;;;;;;;7.20;6.47;;;;;;;21.97;89.77;100757.30;2575515;89;21109;-88
2022/08/30 07:41:56;;;;;;;7.20;6.53;;;;;;;22.32;87.62;100759.34;2591682;88;21105;-89
2022/08/30 07:46:04;;;;;;;8.18;5.90;;;;;;;22.43;87.21;100768.01;2642326;88;21071;-89
2022/08/30 07:50:07;;;;;;;7.28;5.50;;;;;;;22.26;86.70;100773.66;2568529;89;21118;-89
2022/08/30 07:54:08;;;;;;;7.50;6.37;;;;;;;22.09;88.20;100773.89;2598037;90;21093;-89
2022/08/30 07:58:09;;;;;;;5.45;4.90;;;;;;;22.10;88.35;100776.92;2603631;90;21343;-89
2022/08/30 08:02:11;;;;;;;8.65;6.60;;;;;;;22.11;88.25;100782.66;2565111;92;21138;-88
2022/08/30 08:06:15;;;;;;;8.10;6.30;;;;;;;22.59;87.29;100773.18;2583913;91;21092;-88
2022/08/30 08:10:17;;;;;;;6.40;5.83;;;;;;;22.91;85.70;100781.00;2609033;89;21062;-88
2022/08/30 08:14:20;;;;;;;8.58;5.92;;;;;;;23.18;84.80;100780.67;2643371;88;21606;-88
2022/08/30 08:18:21;;;;;;;6.67;5.97;;;;;;;23.28;83.09;100786.31;2646193;88;21091;-89
2022/08/30 08:22:23;;;;;;;4.62;4.00;;;;;;;23.51;83.35;100786.88;2638289;88;21685;-89
2022/08/30 08:26:24;;;;;;;4.25;3.85;;;;;;;23.70;84.44;100787.20;2612137;88;21106;-89
2022/08/30 08:30:25;;;;;;;7.50;6.12;;;;;;;23.72;81.20;100793.26;2633294;88;21600;-89
2022/08/30 08:34:26;;;;;;;7.12;4.72;;;;;;;23.95;81.13;100795.67;2625427;88;21077;-89
2022/08/30 08:38:28;;;;;;;6.03;5.40;;;;;;;24.10;80.47;100798.27;2634568;88;21166;-89
2022/08/30 08:42:59;;;;;;;5.55;4.83;;;;;;;24.06;78.63;100805.16;2600511;89;21236;-89
2022/08/30 08:47:24;;;;;;;3.90;3.60;;;;;;;23.94;79.28;100806.73;2663467;87;21078;-89
2022/08/30 08:55:53;;;;;;;6.58;5.92;;;;;;;23.92;80.73;100800.67;2650792;89;21620;-88
2022/08/30 08:59:54;;;;;;;7.10;6.42;;;;;;;24.04;79.37;100796.37;2665337;88;21104;-88
2022/08/30 09:03:58;;;;;;;7.87;6.50;;;;;;;23.95;81.34;100797.54;2633610;87;21090;-88
2022/08/30 09:08:04;;;;;;;6.83;5.00;;;;;;;24.09;79.71;100792.52;2657715;87;21136;-89
2022/08/30 09:12:09;;;;;;;5.55;4.62;;;;;;;23.93;77.57;100795.05;2662017;88;21104;-89
2022/08/30 09:16:33;;;;;;;5.60;5.12;;;;;;;23.96;77.50;100791.06;2652662;87;21098;-89
2022/08/30 09:20:40;;;;;;;7.25;4.08;;;;;;;24.00;75.57;100788.79;2661053;87;21738;-88
2022/08/30 09:24:46;;;;;;;4.47;4.08;;;;;;;24.28;79.17;100792.79;2590478;90;21080;-89
2022/08/30 09:28:50;;;;;;;4.40;3.80;;;;;;;24.29;76.32;100786.31;2649322;87;21140;-89
2022/08/30 09:32:56;;;;;;;6.15;4.70;;;;;;;24.43;75.94;100784.99;2660500;87;21170;-89
2022/08/30 09:36:57;;;;;;;5.50;4.28;;;;;;;24.36;73.32;100785.80;2656987;87;21077;-89
2022/08/30 09:41:04;;;;;;;6.12;4.42;;;;;;;24.43;74.81;100779.55;2622357;87;21100;-88
2022/08/30 09:45:10;;;;;;;4.97;4.45;;;;;;;24.45;73.44;100781.55;2633140;87;21111;-89
2022/08/30 09:49:37;;;;;;;4.90;4.37;;;;;;;24.37;74.61;100779.34;2582798;89;21170;-88
2022/08/30 09:53:56;;;;;;;3.90;3.52;;;;;;;24.13;73.56;100771.73;2557254;91;21561;-89
2022/08/30 09:58:29;;;;;;;6.53;3.00;;;;;;;24.00;75.50;100771.98;2537326;91;21205;-88
2022/08/30 10:02:54;;;;;;;7.53;4.55;;;;;;;24.17;73.58;100774.34;2534615;91;21082;-89
2022/08/30 10:07:06;;;;;;;5.47;4.42;;;;;;;24.31;73.00;100773.89;2548303;92;21173;-89
2022/08/30 10:11:32;;;;;;;3.02;2.67;;;;;;;24.43;74.16;100770.86;2554731;91;21103;-88
2022/08/30 10:15:40;;;;;;;4.42;2.33;;;;;;;24.08;70.42;100769.11;2548354;91;21679;-89
2022/08/30 10:19:57;;;;;;;3.58;2.85;;;;;;;23.93;74.74;100764.31;2483718;93;21142;-89
2022/08/30 10:24:15;;;;;;;4.67;3.33;;;;;;;23.82;74.63;100762.51;2453958;95;21121;-89
2022/08/30 10:28:40;;;;;;;6.87;2.98;;;;;;;23.99;72.58;100759.44;2460042;93;21197;-88
2022/08/30 10:32:55;;;;;;;5.90;3.57;;;;;;;23.98;72.95;100760.99;2535275;91;21106;-88
2022/08/30 10:37:11;;;;;;;6.12;3.80;;;;;;;24.22;75.63;100757.75;2537429;92;21672;-88
2022/08/30 10:41:30;;;;;;;;;;;;;;;24.33;73.17;100767.18;2530763;91;21174;-88
2022/08/30 10:45:35;;;;;;;1.32;1.22;;;;;;;24.12;70.69;100749.16;2512725;92;20174;-88
2022/08/30 10:49:45;;;;;;;4.15;2.72;;;;;;;24.09;68.16;100744.14;2560462;90;21110;-88
2022/08/30 10:53:50;;;;;;;3.22;2.47;;;;;;;24.16;71.24;100748.21;2595447;90;21577;-89
2022/08/30 10:57:52;;;;;;;2.35;2.15;;;;;;;24.20;69.29;100736.73;2594515;91;21606;-88
2022/08/30 11:02:42;;;;;;;5.80;3.80;;;;;;;24.36;70.22;100734.14;2546100;91;21107;-88
2022/08/30 11:07:04;;;;;;;4.80;4.17;;;;;;;24.53;69.66;100731.03;2640188;87;21082;-88
2022/08/30 11:11:17;;;;;;;2.60;2.02;;;;;;;24.58;71.81;100722.26;2660607;87;21099;-88
2022/08/30 11:15:23;;;;;;;1.85;1.35;;;;;;;24.59;67.25;100725.29;2649250;87;21395;-88
2022/08/30 11:19:37;;;;;;;1.67;1.15;;;;;;;24.58;62.04;100727.19;2654249;87;21079;-88
2022/08/30 11:23:39;;;;;;;2.13;1.30;;;;;;;24.70;61.89;100721.11;2624347;88;21153;-88
2022/08/30 11:27:48;;;;;;;2.50;2.05;;;;;;;24.72;65.78;100721.22;2642778;87;21143;-88
2022/08/30 11:31:50;;;;;;;2.02;1.90;;;;;;;24.75;66.26;100726.75;2665479;87;21070;-88
2022/08/30 11:35:52;;;;;;;4.45;3.10;;;;;;;24.82;64.09;100712.67;2656061;88;21097;-88
2022/08/30 11:39:57;;;;;;;3.35;2.80;;;;;;;25.00;67.03;100710.66;2674534;87;21113;-88
2022/08/30 11:44:28;;;;;;;4.92;3.05;;;;;;;25.21;63.24;100712.81;2634793;88;21105;-88
2022/08/30 11:49:04;;;;;;;1.47;1.37;;;;;;;25.36;65.57;100713.41;2611867;88;21123;-88
2022/08/30 11:53:39;;;;;;;2.20;2.00;;;;;;;25.26;59.00;100709.45;2632065;89;21127;-88
2022/08/30 11:58:10;;;;;;;3.07;1.97;;;;;;;25.20;64.76;100713.35;2583026;89;21114;-88
2022/08/30 12:02:46;;;;;;;4.12;3.45;;;;;;;25.12;58.67;100711.37;2597811;91;21137;-88
2022/08/30 12:07:04;;;;;;;6.90;4.08;;;;;;;25.12;68.20;100711.37;2573515;91;21745;-88
2022/08/30 12:11:13;;;;;;;2.60;2.35;;;;;;;24.88;69.62;100711.82;2601735;90;21154;-88
2022/08/30 12:15:55;;;;;;;3.60;3.02;;;;;;;24.63;67.76;100715.66;2608518;90;23085;-88
2022/08/30 12:19:58;;;;;;;2.85;2.55;;;;;;;24.37;68.41;100714.10;2600975;90;21102;-89
2022/08/30 12:24:14;;;;;;;3.15;2.85;;;;;;;24.34;69.07;100706.88;2607438;90;21143;-88
2022/08/30 12:28:25;;;;;;;4.78;2.87;;;;;;;24.31;71.74;100712.19;2599308;90;21139;-88
2022/08/30 12:32:28;;;;;;;9.85;3.00;;;;;;;24.37;67.06;100704.59;2605670;90;21593;-88
2022/08/30 12:36:41;;;;;;;2.40;2.17;;;;;;;24.45;68.23;100704.06;2568515;92;21114;-88
2022/08/30 12:40:52;;;;;;;3.47;2.70;;;;;;;24.55;67.15;100690.87;2596216;90;21077;-88
2022/08/30 12:44:58;;;;;;;2.85;2.58;;;;;;;24.56;64.66;100695.27;2555354;90;21600;-89
2022/08/30 12:48:59;;;;;;;3.75;2.67;;;;;;;24.65;61.69;100691.30;2602783;90;21129;-89
2022/08/30 12:53:10;;;;;;;2.12;1.90;;;;;;;24.84;61.85;100679.29;2613702;88;21126;-88
2022/08/30 12:57:12;;;;;;;2.52;1.87;;;;;;;24.88;59.71;100665.57;2655093;88;21100;-88
2022/08/30 13:01:34;;;;;;;2.62;1.30;;;;;;;24.88;60.12;100661.49;2646690;87;21665;-87
2022/08/30 13:05:44;;;;;;;2.15;1.85;;;;;;;24.85;58.03;100663.28;2632980;87;21089;-87
2022/08/30 13:09:45;;;;;;;1.90;1.35;;;;;;;24.90;60.54;100659.93;2643235;87;21057;-88
2022/08/30 13:13:53;;;;;;;2.33;1.57;;;;;;;24.99;56.93;100655.10;2659042;87;21733;-88
2022/08/30 13:18:19;;;;;;;1.10;0.80;;;;;;;25.11;56.39;100646.58;2621530;87;21120;-87
2022/08/30 13:22:40;;;;;;;1.20;0.88;;;;;;;25.17;56.64;100642.17;2587134;87;21102;-89
2022/08/30 13:26:41;;;;;;;2.70;1.47;;;;;;;25.19;57.20;100639.55;2606958;87;21189;-90
2022/08/30 13:30:42;;;;;;;2.33;1.80;;;;;;;25.28;56.15;100640.66;2616515;88;21158;-90
2022/08/30 13:34:44;;;;;;;1.27;1.15;;;;;;;25.22;56.94;100636.39;2606051;87;21189;-90
2022/08/30 13:38:45;;;;;;;1.90;1.15;;;;;;;25.14;56.58;100629.81;2626558;89;21059;-88
2022/08/30 13:42:47;;;;;;;1.77;1.35;;;;;;;25.10;57.23;100629.42;2612944;89;21048;-89
2022/08/30 13:46:52;;;;;;;1.72;1.62;;;;;;;25.17;56.25;100625.33;2616517;88;21123;-88
2022/08/30 13:50:54;;;;;;;1.98;1.40;;;;;;;25.15;58.60;100616.52;2631179;87;21061;-88
2022/08/30 13:54:57;;;;;;;2.77;1.70;;;;;;;25.20;56.55;100610.43;2633846;87;21070;-95
2022/08/30 13:58:59;;;;;;;3.47;1.92;;;;;;;25.23;59.51;100611.36;2620590;89;21117;-94
2022/08/30 14:03:01;;;;;;;9.65;2.02;;;;;;;25.24;58.34;100618.47;2615837;88;21058;-92
2022/08/30 14:07:03;;;;;;;2.22;1.92;;;;;;;25.27;59.62;100611.77;2624911;87;21526;-89
2022/08/30 14:11:05;;;;;;;2.35;1.45;;;;;;;25.12;59.47;100607.42;2606079;89;21091;-89
2022/08/30 14:15:08;;;;;;;3.10;1.90;;;;;;;25.16;58.09;100608.69;2598043;88;21043;-88
2022/08/30 14:19:12;;;;;;;3.62;2.05;;;;;;;25.24;58.40;100598.91;2571667;89;21585;-89
2022/08/30 14:23:13;;;;;;;6.95;2.50;;;;;;;25.26;59.06;100608.74;2594008;88;21035;-88
2022/08/30 14:27:15;;;;;;;1.98;1.75;;;;;;;25.29;59.47;100598.78;2633493;86;21046;-89
2022/08/30 14:31:16;;;;;;;3.72;1.70;;;;;;;25.31;60.87;100602.11;2635840;86;21063;-87
2022/08/30 14:35:19;;;;;;;1.60;1.47;;;;;;;25.28;59.05;100599.83;2582540;90;21386;-89
2022/08/30 14:39:22;;;;;;;1.98;1.60;;;;;;;25.34;60.41;100593.00;2601444;89;21114;-90
2022/08/30 14:43:24;;;;;;;2.33;1.87;;;;;;;25.41;60.34;100592.97;2600837;89;21123;-90
2022/08/30 14:47:25;;;;;;;2.27;1.60;;;;;;;25.31;59.84;100596.16;2591039;89;21094;-90
2022/08/30 14:51:27;;;;;;;4.03;1.40;;;;;;;25.36;63.06;100601.78;2583703;90;21057;-89
2022/08/30 14:55:30;;;;;;;2.42;1.92;;;;;;;25.34;60.80;100608.48;2587155;89;21095;-89
2022/08/30 14:59:32;;;;;;;2.27;2.08;;;;;;;25.29;59.90;100606.44;2597937;89;21125;-89
2022/08/30 15:03:35;;;;;;;2.42;2.15;;;;;;;25.26;60.41;100600.58;2661775;86;21131;-89
2022/08/30 15:07:37;;;;;;;2.90;2.00;;;;;;;25.35;58.73;100596.54;2640393;87;21078;-90
2022/08/30 15:11:40;;;;;;;2.20;1.95;;;;;;;25.34;57.51;100597.59;2638642;88;21143;-88
2022/08/30 15:15:42;;;;;;;1.62;1.47;;;;;;;25.33;58.02;100594.05;2638442;87;22216;-89
2022/08/30 15:19:44;;;;;;;3.40;1.62;;;;;;;25.23;56.00;100595.88;2594411;88;21122;-89
2022/08/30 15:23:46;;;;;;;2.15;1.95;;;;;;;25.12;56.10;100592.45;2660935;88;21082;-89
2022/08/30 15:27:48;;;;;;;1.60;1.42;;;;;;;25.08;57.25;100586.63;2596204;88;21608;-88
2022/08/30 15:31:49;;;;;;;5.08;1.77;;;;;;;25.09;59.83;100584.22;2579787;87;21071;-89
2022/08/30 15:35:51;;;;;;;2.15;1.35;;;;;;;25.13;57.46;100583.23;2605009;90;21027;-86
2022/08/30 15:39:54;;;;;;;3.52;2.17;;;;;;;25.01;58.57;100588.52;2609273;90;21070;-87
2022/08/30 15:43:57;;;;;;;1.62;1.50;;;;;;;24.89;58.15;100584.27;2611719;90;21098;-88
2022/08/30 15:48:00;;;;;;;3.35;2.08;;;;;;;24.74;59.96;100587.21;2601028;89;21056;-89
2022/08/30 15:52:03;;;;;;;1.62;1.37;;;;;;;24.54;61.70;100592.67;2585012;88;21089;-88
2022/08/30 15:56:05;;;;;;;1.72;1.42;;;;;;;24.39;58.88;100586.96;2594178;88;21618;-88
2022/08/30 16:00:09;;;;;;;1.60;1.50;;;;;;;24.41;62.43;100577.22;2619421;89;21243;-88
2022/08/30 16:04:10;;;;;;;1.60;1.50;;;;;;;24.31;64.04;100574.92;2607966;89;21730;-88
2022/08/30 16:08:12;;;;;;;2.90;1.98;;;;;;;24.28;63.87;100571.27;2639266;88;21102;-87
2022/08/30 16:12:13;;;;;;;2.67;2.02;;;;;;;24.24;63.99;100574.10;2601607;89;21125;-88
2022/08/30 16:16:15;;;;;;;2.00;1.80;;;;;;;24.23;66.44;100568.36;2592359;87;21078;-88
2022/08/30 16:20:17;;;;;;;3.45;2.72;;;;;;;24.21;66.59;100569.09;2653067;86;21027;-88
2022/08/30 16:24:19;;;;;;;2.90;2.42;;;;;;;24.21;64.94;100563.12;2636606;87;21082;-88
2022/08/30 16:28:20;;;;;;;2.50;2.12;;;;;;;24.18;65.83;100560.83;2653291;87;21437;-88
2022/08/30 16:32:21;;;;;;;2.52;1.80;;;;;;;24.07;67.03;100566.36;2603489;89;21502;-89
2022/08/30 16:36:24;;;;;;;10.60;2.75;;;;;;;24.00;68.26;100566.86;2629645;88;21656;-88
2022/08/30 16:40:26;;;;;;;2.45;2.08;;;;;;;23.93;69.64;100570.93;2638848;87;21134;-88
2022/08/30 16:44:27;;;;;;;2.77;2.30;;;;;;;23.86;70.02;100576.04;2654666;88;21118;-88
2022/08/30 16:48:29;;;;;;;4.83;3.27;;;;;;;23.72;70.07;100567.04;2667215;88;21050;-87
2022/08/30 16:52:30;;;;;;;4.40;3.05;;;;;;;23.66;70.92;100570.05;2647814;87;21106;-87
2022/08/30 16:56:33;;;;;;;4.87;2.92;;;;;;;23.58;71.09;100566.16;2648458;88;21626;-88
2022/08/30 17:00:37;;;;;;;3.65;2.35;;;;;;;23.49;72.08;100570.42;2651664;86;21054;-87
2022/08/30 17:04:39;;;;;;;2.40;2.20;;;;;;;23.38;71.91;100579.15;2630779;87;21145;-88
2022/08/30 17:08:41;;;;;;;3.12;2.22;;;;;;;23.26;72.81;100573.47;2636938;87;21066;-87
2022/08/30 17:12:42;;;;;;;3.08;2.50;;;;;;;23.16;74.27;100575.71;2646445;87;21111;-87
2022/08/30 17:16:44;;;;;;;4.28;1.85;;;;;;;23.04;75.58;100577.63;2612265;88;21086;-88
2022/08/30 17:20:45;;;;;;;4.05;2.90;;;;;;;22.91;75.59;100576.23;2657300;87;21074;-87
2022/08/30 17:24:47;;;;;;;3.17;2.33;;;;;;;22.73;76.58;100578.09;2645680;87;22055;-86
2022/08/30 17:28:49;;;;;;;3.58;3.10;;;;;;;22.60;76.34;100579.70;2629371;87;21204;-87
2022/08/30 17:32:52;;;;;;;2.90;2.58;;;;;;;22.47;76.32;100583.13;2637998;87;21101;-87
2022/08/30 17:36:57;;;;;;;3.10;2.83;;;;;;;22.36;76.49;100593.97;2613251;88;21141;-87
2022/08/30 17:41:08;;;;;;;7.70;1.65;;;;;;;22.22;77.60;100596.27;2663448;87;21216;-88
2022/08/30 17:45:12;;;;;;;4.67;2.33;;;;;;;22.10;78.34;100603.56;2599061;88;21607;-88
2022/08/30 17:49:13;;;;;;;2.17;1.95;;;;;;;21.97;79.43;100614.25;2641857;88;21054;-87
2022/08/30 17:53:14;;;;;;;4.70;3.12;;;;;;;21.87;80.47;100616.46;2637292;88;21057;-88
2022/08/30 17:57:17;;;;;;;3.40;2.58;;;;;;;21.78;80.28;100620.63;2617855;88;21050;-88
2022/08/30 18:01:19;;;;;;;3.47;2.83;;;;;;;21.76;80.37;100625.39;2618710;89;21049;-87
2022/08/30 18:05:21;;;;;;;3.52;2.95;;;;;;;21.73;80.84;100628.49;2601242;89;21142;-87
2022/08/30 18:09:23;;;;;;;3.90;2.83;;;;;;;21.66;82.04;100634.36;2611912;88;21042;-86
2022/08/30 18:13:24;;;;;;;5.78;2.83;;;;;;;21.53;84.15;100638.55;2595880;88;21419;-85
2022/08/30 18:17:27;;;;;;;2.33;1.60;;;;;;;21.44;82.59;100646.46;2631946;88;21064;-86
2022/08/30 18:21:28;;;;;;;2.72;2.05;;;;;;;21.36;84.39;100651.95;2640645;88;21109;-86
2022/08/30 18:25:29;;;;;;;3.90;1.60;;;;;;;21.26;84.49;100649.55;2652364;88;21602;-87
2022/08/30 18:29:31;;;;;;;2.02;1.65;;;;;;;21.13;83.79;100652.91;2657536;88;21082;-87
2022/08/30 18:33:33;;;;;;;2.45;1.72;;;;;;;21.03;84.81;100655.03;2669445;87;21078;-87
2022/08/30 18:37:35;;;;;;;2.33;1.98;;;;;;;20.97;85.79;100658.00;2663165;88;21057;-88
2022/08/30 18:41:40;;;;;;;1.57;1.42;;;;;;;20.88;86.05;100662.65;2644711;88;21054;-88
2022/08/30 18:45:44;;;;;;;;;;;;;;;20.76;86.62;100668.13;2655904;88;21123;-87
2022/08/30 18:49:45;;;;;;;2.17;1.37;;;;;;;20.64;87.17;100668.59;2630603;87;20141;-88
2022/08/30 18:53:48;;;;;;;1.98;1.77;;;;;;;20.53;88.17;100673.08;2649374;87;21051;-87
2022/08/30 18:57:49;;;;;;;4.15;2.00;;;;;;;20.43;88.63;100678.73;2619557;88;21605;-87
2022/08/30 19:01:51;;;;;;;3.35;1.77;;;;;;;20.32;89.20;100670.55;2630431;88;21087;-88